North Ferrisburg, Vermont
Current Conditions -  °F | °C
As of 9:54 PM on Friday 19 Dec 2014 (Local Time) from KBTV Reporting Station
Clear Clear  
Wind Chill: 13°   Ceiling: Unl
Heat Index: 20°   Visibility: 10mi
Dew Point: 13°   Wind: 5mph
Humidity: 74%   Direction: 40°NE
Pressure: 30.21"   Gusts: NA
Location:  44.26°N, 73.21°W
Report Text: KBTV 200254Z 04004KT 10SM CLR M07/M11 A3021 RMK AO2 SLP237 T10671106 51009
Loading
Personal Weather Stations






























Interactive Weather Map New forecast layout! Learn more

10-Day Weather Forecast

Advertisements
Track Severe Weather on mobile